sensor_id;sensor_type;location;lat;lon;timestamp;pressure;altitude;pressure_sealevel;temperature;humidity
50282;BME280;36176;51.506;10.272;2023-07-20T00:00:08;99139.72;;;16.93;91.87
50282;BME280;36176;51.506;10.272;2023-07-20T00:02:35;99139.34;;;16.86;91.93
50282;BME280;36176;51.506;10.272;2023-07-20T00:05:03;99137.84;;;16.82;92.33
50282;BME280;36176;51.506;10.272;2023-07-20T00:07:30;99127.50;;;16.77;92.43
50282;BME280;36176;51.506;10.272;2023-07-20T00:09:57;99132.09;;;16.75;92.44
50282;BME280;36176;51.506;10.272;2023-07-20T00:12:24;99121.75;;;16.71;92.76
50282;BME280;36176;51.506;10.272;2023-07-20T00:14:51;99124.31;;;16.72;92.38
50282;BME280;36176;51.506;10.272;2023-07-20T00:17:20;99118.22;;;16.70;92.35
50282;BME280;36176;51.506;10.272;2023-07-20T00:19:47;99127.34;;;16.68;92.32
50282;BME280;36176;51.506;10.272;2023-07-20T00:22:14;99133.78;;;16.65;92.62
50282;BME280;36176;51.506;10.272;2023-07-20T00:24:42;99128.56;;;16.64;92.83
50282;BME280;36176;51.506;10.272;2023-07-20T00:27:09;99135.72;;;16.63;92.62
50282;BME280;36176;51.506;10.272;2023-07-20T00:29:36;99135.72;;;16.63;92.48
50282;BME280;36176;51.506;10.272;2023-07-20T00:32:03;99132.31;;;16.61;92.85
50282;BME280;36176;51.506;10.272;2023-07-20T00:34:32;99130.75;;;16.58;93.07
50282;BME280;36176;51.506;10.272;2023-07-20T00:37:00;99132.56;;;16.58;93.08
50282;BME280;36176;51.506;10.272;2023-07-20T00:39:27;99130.13;;;16.55;93.97
50282;BME280;36176;51.506;10.272;2023-07-20T00:41:54;99134.00;;;16.51;93.99
50282;BME280;36176;51.506;10.272;2023-07-20T00:44:21;99139.34;;;16.51;93.47
50282;BME280;36176;51.506;10.272;2023-07-20T00:46:48;99145.56;;;16.51;93.50
50282;BME280;36176;51.506;10.272;2023-07-20T00:49:16;99150.91;;;16.51;94.25
50282;BME280;36176;51.506;10.272;2023-07-20T00:51:43;99156.25;;;16.51;94.09
50282;BME280;36176;51.506;10.272;2023-07-20T00:54:11;99158.91;;;16.40;95.41
50282;BME280;36176;51.506;10.272;2023-07-20T00:56:39;99161.16;;;16.22;96.87
50282;BME280;36176;51.506;10.272;2023-07-20T00:59:06;99161.66;;;16.03;96.07
50282;BME280;36176;51.506;10.272;2023-07-20T01:01:33;99157.25;;;15.91;96.43
50282;BME280;36176;51.506;10.272;2023-07-20T01:04:01;99158.44;;;15.87;96.83
50282;BME280;36176;51.506;10.272;2023-07-20T01:06:41;99165.00;;;15.83;97.25
50282;BME280;36176;51.506;10.272;2023-07-20T01:09:27;99156.31;;;15.79;97.49
50282;BME280;36176;51.506;10.272;2023-07-20T01:12:02;99155.72;;;15.76;98.28
50282;BME280;36176;51.506;10.272;2023-07-20T01:14:34;99152.16;;;15.75;98.53
50282;BME280;36176;51.506;10.272;2023-07-20T01:17:02;99149.41;;;15.77;98.83
50282;BME280;36176;51.506;10.272;2023-07-20T01:19:29;99149.00;;;15.70;99.26
50282;BME280;36176;51.506;10.272;2023-07-20T01:28:03;99149.72;;;15.72;99.23
50282;BME280;36176;51.506;10.272;2023-07-20T01:30:51;99144.94;;;15.64;99.48
50282;BME280;36176;51.506;10.272;2023-07-20T01:33:19;99146.25;;;15.59;99.60
50282;BME280;36176;51.506;10.272;2023-07-20T01:35:59;99140.25;;;15.55;99.70
50282;BME280;36176;51.506;10.272;2023-07-20T01:38:28;99135.16;;;15.52;99.75
50282;BME280;36176;51.506;10.272;2023-07-20T01:40:55;99139.84;;;15.48;99.20
50282;BME280;36176;51.506;10.272;2023-07-20T01:43:24;99139.31;;;15.43;99.52
50282;BME280;36176;51.506;10.272;2023-07-20T01:45:51;99142.09;;;15.42;99.38
50282;BME280;36176;51.506;10.272;2023-07-20T01:48:18;99147.81;;;15.37;98.78
50282;BME280;36176;51.506;10.272;2023-07-20T01:50:46;99140.97;;;15.33;98.95
50282;BME280;36176;51.506;10.272;2023-07-20T01:53:13;99144.72;;;15.30;99.16
50282;BME280;36176;51.506;10.272;2023-07-20T01:55:40;99151.75;;;15.31;99.57
50282;BME280;36176;51.506;10.272;2023-07-20T01:58:07;99145.47;;;15.32;98.74
50282;BME280;36176;51.506;10.272;2023-07-20T02:00:37;99150.78;;;15.32;98.73
50282;BME280;36176;51.506;10.272;2023-07-20T02:03:04;99148.47;;;15.28;98.94
50282;BME280;36176;51.506;10.272;2023-07-20T02:05:32;99146.88;;;15.25;99.59
50282;BME280;36176;51.506;10.272;2023-07-20T02:07:59;99157.53;;;15.25;99.65
50282;BME280;36176;51.506;10.272;2023-07-20T02:10:26;99154.97;;;15.24;99.74
50282;BME280;36176;51.506;10.272;2023-07-20T02:12:53;99157.63;;;15.24;99.52
50282;BME280;36176;51.506;10.272;2023-07-20T02:15:21;99151.78;;;15.19;100.00
50282;BME280;36176;51.506;10.272;2023-07-20T02:17:48;99158.06;;;15.18;100.00
50282;BME280;36176;51.506;10.272;2023-07-20T02:20:16;99153.69;;;15.17;100.00
50282;BME280;36176;51.506;10.272;2023-07-20T02:22:44;99154.53;;;15.17;100.00
50282;BME280;36176;51.506;10.272;2023-07-20T02:25:11;99161.59;;;15.18;100.00
50282;BME280;36176;51.506;10.272;2023-07-20T02:27:38;99167.88;;;15.17;100.00
50282;BME280;36176;51.506;10.272;2023-07-20T02:30:08;99167.88;;;15.17;100.00
50282;BME280;36176;51.506;10.272;2023-07-20T02:32:36;99160.19;;;15.13;99.66
50282;BME280;36176;51.506;10.272;2023-07-20T02:35:04;99160.66;;;15.06;100.00
50282;BME280;36176;51.506;10.272;2023-07-20T02:37:31;99160.84;;;15.03;99.41
50282;BME280;36176;51.506;10.272;2023-07-20T02:39:59;99159.56;;;14.96;99.17
50282;BME280;36176;51.506;10.272;2023-07-20T02:42:27;99160.88;;;14.91;99.43
50282;BME280;36176;51.506;10.272;2023-07-20T02:44:55;99159.38;;;14.86;99.34
50282;BME280;36176;51.506;10.272;2023-07-20T02:47:22;99159.38;;;14.86;99.87
50282;BME280;36176;51.506;10.272;2023-07-20T02:49:49;99162.16;;;14.85;100.00
50282;BME280;36176;51.506;10.272;2023-07-20T02:52:16;99156.59;;;14.88;100.00
50282;BME280;36176;51.506;10.272;2023-07-20T02:54:45;99162.03;;;14.86;100.00
50282;BME280;36176;51.506;10.272;2023-07-20T02:57:12;99157.13;;;14.93;100.00
50282;BME280;36176;51.506;10.272;2023-07-20T02:59:39;99160.66;;;14.94;100.00
50282;BME280;36176;51.506;10.272;2023-07-20T03:02:07;99152.44;;;14.97;100.00
50282;BME280;36176;51.506;10.272;2023-07-20T03:04:36;99151.69;;;14.95;100.00
50282;BME280;36176;51.506;10.272;2023-07-20T03:07:05;99160.13;;;14.88;100.00
50282;BME280;36176;51.506;10.272;2023-07-20T03:09:32;99167.38;;;14.86;100.00
50282;BME280;36176;51.506;10.272;2023-07-20T03:11:59;99171.75;;;14.87;100.00
50282;BME280;36176;51.506;10.272;2023-07-20T03:14:26;99178.56;;;14.92;100.00
50282;BME280;36176;51.506;10.272;2023-07-20T03:16:54;99172.06;;;14.96;100.00
50282;BME280;36176;51.506;10.272;2023-07-20T03:19:21;99173.97;;;14.94;100.00
50282;BME280;36176;51.506;10.272;2023-07-20T03:21:48;99165.13;;;14.93;100.00
50282;BME280;36176;51.506;10.272;2023-07-20T03:24:16;99172.81;;;14.98;100.00
50282;BME280;36176;51.506;10.272;2023-07-20T03:26:43;99170.06;;;14.99;100.00
50282;BME280;36176;51.506;10.272;2023-07-20T03:29:10;99162.81;;;15.01;100.00
50282;BME280;36176;51.506;10.272;2023-07-20T03:31:37;99161.59;;;15.05;100.00
50282;BME280;36176;51.506;10.272;2023-07-20T03:34:05;99160.53;;;15.08;100.00
50282;BME280;36176;51.506;10.272;2023-07-20T03:36:35;99160.53;;;15.08;100.00
50282;BME280;36176;51.506;10.272;2023-07-20T03:39:02;99157.66;;;15.11;100.00
50282;BME280;36176;51.506;10.272;2023-07-20T03:41:30;99155.53;;;15.16;100.00
50282;BME280;36176;51.506;10.272;2023-07-20T03:43:57;99147.50;;;15.16;100.00
50282;BME280;36176;51.506;10.272;2023-07-20T03:46:25;99143.03;;;15.17;100.00
50282;BME280;36176;51.506;10.272;2023-07-20T03:48:52;99140.34;;;15.17;100.00
50282;BME280;36176;51.506;10.272;2023-07-20T03:51:19;99145.59;;;15.18;100.00
50282;BME280;36176;51.506;10.272;2023-07-20T03:53:47;99150.94;;;15.18;100.00
50282;BME280;36176;51.506;10.272;2023-07-20T03:56:14;99158.81;;;15.20;100.00
50282;BME280;36176;51.506;10.272;2023-07-20T03:58:41;99164.91;;;15.22;100.00
50282;BME280;36176;51.506;10.272;2023-07-20T04:01:08;99168.41;;;15.22;100.00
50282;BME280;36176;51.506;10.272;2023-07-20T04:03:36;99174.81;;;15.20;100.00
50282;BME280;36176;51.506;10.272;2023-07-20T04:06:04;99169.38;;;15.21;100.00
50282;BME280;36176;51.506;10.272;2023-07-20T04:08:31;99167.66;;;15.20;100.00
50282;BME280;36176;51.506;10.272;2023-07-20T04:11:02;99167.88;;;15.17;100.00
50282;BME280;36176;51.506;10.272;2023-07-20T04:13:32;99169.72;;;15.17;100.00
50282;BME280;36176;51.506;10.272;2023-07-20T04:16:02;99169.47;;;15.20;100.00
50282;BME280;36176;51.506;10.272;2023-07-20T04:18:29;99170.56;;;15.17;100.00
50282;BME280;36176;51.506;10.272;2023-07-20T04:20:56;99174.06;;;15.18;100.00
50282;BME280;36176;51.506;10.272;2023-07-20T04:23:25;99174.81;;;15.20;100.00
50282;BME280;36176;51.506;10.272;2023-07-20T04:25:52;99173.75;;;15.22;100.00
50282;BME280;36176;51.506;10.272;2023-07-20T04:28:19;99166.25;;;15.27;100.00
50282;BME280;36176;51.506;10.272;2023-07-20T04:30:49;99168.09;;;15.27;100.00
50282;BME280;36176;51.506;10.272;2023-07-20T04:33:18;99179.41;;;15.30;100.00
50282;BME280;36176;51.506;10.272;2023-07-20T04:35:46;99180.53;;;15.39;100.00
50282;BME280;36176;51.506;10.272;2023-07-20T04:38:14;99181.63;;;15.49;100.00
50282;BME280;36176;51.506;10.272;2023-07-20T04:40:45;99171.97;;;15.60;100.00
50282;BME280;36176;51.506;10.272;2023-07-20T04:43:14;99167.69;;;15.70;100.00
50282;BME280;36176;51.506;10.272;2023-07-20T04:45:42;99173.09;;;15.81;100.00
50282;BME280;36176;51.506;10.272;2023-07-20T04:48:11;99173.03;;;15.94;100.00
50282;BME280;36176;51.506;10.272;2023-07-20T04:50:40;99168.00;;;16.02;99.74
50282;BME280;36176;51.506;10.272;2023-07-20T04:53:11;99172.66;;;16.11;99.32
50282;BME280;36176;51.506;10.272;2023-07-20T04:55:39;99164.91;;;16.20;98.35
50282;BME280;36176;51.506;10.272;2023-07-20T04:58:09;99169.66;;;16.27;97.71
50282;BME280;36176;51.506;10.272;2023-07-20T05:00:38;99176.59;;;16.30;97.09
50282;BME280;36176;51.506;10.272;2023-07-20T05:03:05;99175.75;;;16.29;97.09
50282;BME280;36176;51.506;10.272;2023-07-20T05:05:33;99179.91;;;16.33;96.82
50282;BME280;36176;51.506;10.272;2023-07-20T05:08:00;99177.09;;;16.35;97.66
50282;BME280;36176;51.506;10.272;2023-07-20T05:10:27;99180.41;;;16.38;97.15
50282;BME280;36176;51.506;10.272;2023-07-20T05:12:54;99180.06;;;16.43;96.49
50282;BME280;36176;51.506;10.272;2023-07-20T05:15:21;99185.28;;;16.45;96.71
50282;BME280;36176;51.506;10.272;2023-07-20T05:17:48;99176.19;;;16.47;96.83
50282;BME280;36176;51.506;10.272;2023-07-20T05:20:16;99176.91;;;16.49;96.83
50282;BME280;36176;51.506;10.272;2023-07-20T05:22:43;99180.31;;;16.51;96.24
50282;BME280;36176;51.506;10.272;2023-07-20T05:25:11;99177.28;;;16.56;95.67
50282;BME280;36176;51.506;10.272;2023-07-20T05:27:39;99183.28;;;16.59;95.83
50282;BME280;36176;51.506;10.272;2023-07-20T05:30:06;99187.38;;;16.52;94.23
50282;BME280;36176;51.506;10.272;2023-07-20T05:32:34;99181.06;;;16.53;94.08
50282;BME280;36176;51.506;10.272;2023-07-20T05:35:01;99190.66;;;16.56;94.27
50282;BME280;36176;51.506;10.272;2023-07-20T05:37:28;99186.91;;;16.58;94.94
50282;BME280;36176;51.506;10.272;2023-07-20T05:39:56;99188.63;;;16.59;95.68
50282;BME280;36176;51.506;10.272;2023-07-20T05:42:23;99188.63;;;16.59;95.71
50282;BME280;36176;51.506;10.272;2023-07-20T05:44:50;99179.63;;;16.61;96.38
50282;BME280;36176;51.506;10.272;2023-07-20T05:47:20;99188.97;;;16.66;96.85
50282;BME280;36176;51.506;10.272;2023-07-20T05:49:47;99188.63;;;16.71;96.26
50282;BME280;36176;51.506;10.272;2023-07-20T05:52:14;99192.28;;;16.70;96.19
50282;BME280;36176;51.506;10.272;2023-07-20T05:54:41;99186.09;;;16.69;96.42
50282;BME280;36176;51.506;10.272;2023-07-20T05:57:08;99184.75;;;16.75;96.77
50282;BME280;36176;51.506;10.272;2023-07-20T05:59:36;99184.94;;;16.85;96.55
50282;BME280;36176;51.506;10.272;2023-07-20T06:02:06;99183.00;;;16.98;96.44
50282;BME280;36176;51.506;10.272;2023-07-20T06:04:33;99169.16;;;17.15;96.47
50282;BME280;36176;51.506;10.272;2023-07-20T06:07:01;99174.25;;;17.30;95.89
50282;BME280;36176;51.506;10.272;2023-07-20T06:09:28;99179.38;;;17.44;95.09
50282;BME280;36176;51.506;10.272;2023-07-20T06:11:57;99187.63;;;17.52;93.76
50282;BME280;36176;51.506;10.272;2023-07-20T06:14:25;99188.25;;;17.56;93.49
50282;BME280;36176;51.506;10.272;2023-07-20T06:16:52;99182.25;;;17.52;92.92
50282;BME280;36176;51.506;10.272;2023-07-20T06:19:19;99183.63;;;17.47;92.41
50282;BME280;36176;51.506;10.272;2023-07-20T06:21:46;99193.50;;;17.46;92.56
50282;BME280;36176;51.506;10.272;2023-07-20T06:24:14;99198.00;;;17.46;93.09
50282;BME280;36176;51.506;10.272;2023-07-20T06:26:41;99186.66;;;17.42;93.15
50282;BME280;36176;51.506;10.272;2023-07-20T06:29:08;99191.19;;;17.41;93.05
50282;BME280;36176;51.506;10.272;2023-07-20T06:31:38;99189.97;;;17.46;92.78
50282;BME280;36176;51.506;10.272;2023-07-20T06:34:05;99194.22;;;17.48;93.00
50282;BME280;36176;51.506;10.272;2023-07-20T06:36:32;99191.41;;;17.50;92.43
50282;BME280;36176;51.506;10.272;2023-07-20T06:38:59;99195.44;;;17.44;92.09
50282;BME280;36176;51.506;10.272;2023-07-20T06:41:30;99187.41;;;17.33;91.93
50282;BME280;36176;51.506;10.272;2023-07-20T06:44:00;99191.53;;;17.26;92.81
50282;BME280;36176;51.506;10.272;2023-07-20T06:46:27;99190.44;;;17.28;93.09
50282;BME280;36176;51.506;10.272;2023-07-20T06:48:54;99194.34;;;17.24;93.13
50282;BME280;36176;51.506;10.272;2023-07-20T06:51:24;99192.03;;;17.19;92.96
50282;BME280;36176;51.506;10.272;2023-07-20T06:53:52;99200.81;;;17.21;93.03
50282;BME280;36176;51.506;10.272;2023-07-20T06:56:19;99198.47;;;17.28;93.50
50282;BME280;36176;51.506;10.272;2023-07-20T06:58:50;99202.88;;;17.29;93.70
50282;BME280;36176;51.506;10.272;2023-07-20T07:01:18;99204.91;;;17.26;94.13
50282;BME280;36176;51.506;10.272;2023-07-20T07:03:49;99208.22;;;17.29;94.43
50282;BME280;36176;51.506;10.272;2023-07-20T07:06:21;99206.03;;;17.34;94.70
50282;BME280;36176;51.506;10.272;2023-07-20T07:08:52;99206.75;;;17.36;94.39
50282;BME280;36176;51.506;10.272;2023-07-20T07:11:20;99208.19;;;17.40;94.38
50282;BME280;36176;51.506;10.272;2023-07-20T07:13:48;99213.19;;;17.45;94.24
50282;BME280;36176;51.506;10.272;2023-07-20T07:16:17;99211.13;;;17.49;93.84
50282;BME280;36176;51.506;10.272;2023-07-20T07:18:47;99218.06;;;17.51;92.99
50282;BME280;36176;51.506;10.272;2023-07-20T07:21:15;99216.97;;;17.54;92.43
50282;BME280;36176;51.506;10.272;2023-07-20T07:23:45;99222.34;;;17.54;91.50
50282;BME280;36176;51.506;10.272;2023-07-20T07:26:16;99225.25;;;17.51;91.76
50282;BME280;36176;51.506;10.272;2023-07-20T07:28:43;99222.44;;;17.52;92.13
50282;BME280;36176;51.506;10.272;2023-07-20T07:31:10;99224.75;;;17.57;91.97
50282;BME280;36176;51.506;10.272;2023-07-20T07:33:38;99226.94;;;17.63;91.73
50282;BME280;36176;51.506;10.272;2023-07-20T07:36:05;99222.06;;;17.68;91.19
50282;BME280;36176;51.506;10.272;2023-07-20T07:38:32;99227.78;;;17.75;90.91
50282;BME280;36176;51.506;10.272;2023-07-20T07:41:19;99225.59;;;17.80;91.24
50282;BME280;36176;51.506;10.272;2023-07-20T07:43:46;99220.09;;;18.04;90.78
50282;BME280;36176;51.506;10.272;2023-07-20T07:46:13;99235.59;;;18.33;89.55
50282;BME280;36176;51.506;10.272;2023-07-20T07:48:42;99234.19;;;18.49;88.01
50282;BME280;36176;51.506;10.272;2023-07-20T07:51:09;99238.34;;;18.54;86.20
50282;BME280;36176;51.506;10.272;2023-07-20T07:53:37;99236.78;;;18.40;85.03
50282;BME280;36176;51.506;10.272;2023-07-20T07:56:07;99236.47;;;18.22;85.87
50282;BME280;36176;51.506;10.272;2023-07-20T07:58:34;99242.13;;;18.07;86.53
50282;BME280;36176;51.506;10.272;2023-07-20T08:01:02;99237.28;;;18.01;87.28
50282;BME280;36176;51.506;10.272;2023-07-20T08:03:29;99237.66;;;17.97;87.90
50282;BME280;36176;51.506;10.272;2023-07-20T08:05:56;99245.44;;;18.00;88.35
50282;BME280;36176;51.506;10.272;2023-07-20T08:08:23;99245.41;;;18.11;87.99
50282;BME280;36176;51.506;10.272;2023-07-20T08:10:53;99243.69;;;18.21;88.71
50282;BME280;36176;51.506;10.272;2023-07-20T08:13:23;99246.34;;;18.33;87.85
50282;BME280;36176;51.506;10.272;2023-07-20T08:15:51;99247.00;;;18.46;87.74
50282;BME280;36176;51.506;10.272;2023-07-20T08:18:21;99251.13;;;18.50;86.71
50282;BME280;36176;51.506;10.272;2023-07-20T08:20:49;99252.50;;;18.44;85.87
50282;BME280;36176;51.506;10.272;2023-07-20T08:23:16;99253.06;;;18.27;85.34
50282;BME280;36176;51.506;10.272;2023-07-20T08:25:43;99266.41;;;18.06;84.94
50282;BME280;36176;51.506;10.272;2023-07-20T08:28:15;99268.22;;;17.72;85.44
50282;BME280;36176;51.506;10.272;2023-07-20T08:30:44;99275.66;;;17.57;86.96
50282;BME280;36176;51.506;10.272;2023-07-20T08:33:17;99279.91;;;17.59;88.46
50282;BME280;36176;51.506;10.272;2023-07-20T08:35:46;99281.03;;;17.68;88.37
50282;BME280;36176;51.506;10.272;2023-07-20T08:38:13;99278.81;;;17.73;88.09
50282;BME280;36176;51.506;10.272;2023-07-20T08:40:42;99277.47;;;17.79;87.40
50282;BME280;36176;51.506;10.272;2023-07-20T08:43:14;99282.00;;;17.90;88.01
50282;BME280;36176;51.506;10.272;2023-07-20T08:45:44;99290.16;;;17.99;87.29
50282;BME280;36176;51.506;10.272;2023-07-20T08:48:13;99286.84;;;18.07;86.93
50282;BME280;36176;51.506;10.272;2023-07-20T08:50:41;99289.25;;;18.21;86.69
50282;BME280;36176;51.506;10.272;2023-07-20T08:53:08;99288.97;;;18.36;85.59
50282;BME280;36176;51.506;10.272;2023-07-20T08:55:38;99293.28;;;18.59;84.57
50282;BME280;36176;51.506;10.272;2023-07-20T08:58:08;99291.34;;;18.94;84.53
50282;BME280;36176;51.506;10.272;2023-07-20T09:00:36;99303.53;;;19.19;80.75
50282;BME280;36176;51.506;10.272;2023-07-20T09:03:04;99303.94;;;19.35;80.21
50282;BME280;36176;51.506;10.272;2023-07-20T09:05:31;99305.28;;;19.50;80.45
50282;BME280;36176;51.506;10.272;2023-07-20T09:08:00;99305.78;;;19.65;79.95
50282;BME280;36176;51.506;10.272;2023-07-20T09:10:31;99310.44;;;19.63;78.59
50282;BME280;36176;51.506;10.272;2023-07-20T09:12:58;99307.00;;;19.51;77.89
50282;BME280;36176;51.506;10.272;2023-07-20T09:15:26;99309.94;;;19.48;77.39
50282;BME280;36176;51.506;10.272;2023-07-20T09:17:53;99310.66;;;19.29;77.37
50282;BME280;36176;51.506;10.272;2023-07-20T09:20:21;99316.44;;;19.04;78.50
50282;BME280;36176;51.506;10.272;2023-07-20T09:22:50;99321.75;;;18.94;79.67
50282;BME280;36176;51.506;10.272;2023-07-20T09:25:19;99321.13;;;18.90;79.57
50282;BME280;36176;51.506;10.272;2023-07-20T09:27:49;99324.47;;;18.83;79.90
50282;BME280;36176;51.506;10.272;2023-07-20T09:30:18;99328.53;;;18.66;79.51
50282;BME280;36176;51.506;10.272;2023-07-20T09:32:47;99333.53;;;18.59;80.80
50282;BME280;36176;51.506;10.272;2023-07-20T09:35:21;99335.06;;;18.41;79.81
50282;BME280;36176;51.506;10.272;2023-07-20T09:37:55;99334.38;;;18.27;80.68
50282;BME280;36176;51.506;10.272;2023-07-20T09:40:28;99335.81;;;18.32;82.78
50282;BME280;36176;51.506;10.272;2023-07-20T09:42:59;99342.22;;;18.52;82.66
50282;BME280;36176;51.506;10.272;2023-07-20T09:45:35;99336.94;;;18.73;81.86
50282;BME280;36176;51.506;10.272;2023-07-20T09:48:06;99347.09;;;19.01;81.86
50282;BME280;36176;51.506;10.272;2023-07-20T09:50:41;99344.34;;;19.33;79.45
50282;BME280;36176;51.506;10.272;2023-07-20T09:53:13;99338.97;;;19.54;78.32
50282;BME280;36176;51.506;10.272;2023-07-20T09:55:41;99338.28;;;19.62;79.89
50282;BME280;36176;51.506;10.272;2023-07-20T09:58:12;99342.16;;;19.90;78.75
50282;BME280;36176;51.506;10.272;2023-07-20T10:00:40;99340.53;;;20.09;77.20
50282;BME280;36176;51.506;10.272;2023-07-20T10:03:16;99338.97;;;20.16;73.80
50282;BME280;36176;51.506;10.272;2023-07-20T10:05:56;99337.78;;;20.49;74.73
50282;BME280;36176;51.506;10.272;2023-07-20T10:08:26;99339.28;;;20.92;72.57
50282;BME280;36176;51.506;10.272;2023-07-20T10:11:00;99335.31;;;21.06;73.17
50282;BME280;36176;51.506;10.272;2023-07-20T10:13:30;99341.69;;;20.95;70.62
50282;BME280;36176;51.506;10.272;2023-07-20T10:16:38;99344.09;;;20.79;70.00
50282;BME280;36176;51.506;10.272;2023-07-20T10:19:15;99348.63;;;20.69;71.01
50282;BME280;36176;51.506;10.272;2023-07-20T10:21:48;99346.91;;;20.58;70.98
50282;BME280;36176;51.506;10.272;2023-07-20T10:24:25;99346.78;;;20.59;70.79
50282;BME280;36176;51.506;10.272;2023-07-20T10:26:55;99343.09;;;20.90;70.83
50282;BME280;36176;51.506;10.272;2023-07-20T10:29:23;99338.25;;;21.32;69.78
50282;BME280;36176;51.506;10.272;2023-07-20T10:31:51;99335.59;;;21.89;68.90
50282;BME280;36176;51.506;10.272;2023-07-20T10:34:22;99336.91;;;22.40;68.09
50282;BME280;36176;51.506;10.272;2023-07-20T10:36:49;99329.72;;;22.94;66.75
50282;BME280;36176;51.506;10.272;2023-07-20T10:39:23;99335.28;;;23.55;63.83
50282;BME280;36176;51.506;10.272;2023-07-20T10:42:03;99319.31;;;23.96;61.29
50282;BME280;36176;51.506;10.272;2023-07-20T10:44:30;99308.75;;;24.19;61.08
50282;BME280;36176;51.506;10.272;2023-07-20T10:47:02;99329.88;;;24.50;55.76
50282;BME280;36176;51.506;10.272;2023-07-20T10:49:33;99328.88;;;24.75;55.97
50282;BME280;36176;51.506;10.272;2023-07-20T10:52:04;99326.75;;;25.12;52.82
50282;BME280;36176;51.506;10.272;2023-07-20T10:54:33;99319.78;;;25.42;53.72
50282;BME280;36176;51.506;10.272;2023-07-20T10:57:21;99321.66;;;25.41;52.27
50282;BME280;36176;51.506;10.272;2023-07-20T10:59:49;99319.09;;;25.15;50.06
50282;BME280;36176;51.506;10.272;2023-07-20T11:02:18;99314.72;;;25.14;51.31
50282;BME280;36176;51.506;10.272;2023-07-20T11:04:46;99316.53;;;24.89;50.31
50282;BME280;36176;51.506;10.272;2023-07-20T11:07:16;99318.28;;;25.23;52.63
50282;BME280;36176;51.506;10.272;2023-07-20T11:09:44;99305.00;;;25.61;50.96
50282;BME280;36176;51.506;10.272;2023-07-20T11:12:17;99312.81;;;25.56;48.97
50282;BME280;36176;51.506;10.272;2023-07-20T11:14:57;99306.72;;;26.09;48.01
50282;BME280;36176;51.506;10.272;2023-07-20T11:17:32;99308.50;;;26.65;45.03
50282;BME280;36176;51.506;10.272;2023-07-20T11:20:00;99309.28;;;26.42;44.94
50282;BME280;36176;51.506;10.272;2023-07-20T11:22:31;99313.63;;;25.73;46.41
50282;BME280;36176;51.506;10.272;2023-07-20T11:24:58;99322.13;;;24.71;47.87
50282;BME280;36176;51.506;10.272;2023-07-20T11:27:25;99309.06;;;23.73;49.30
50282;BME280;36176;51.506;10.272;2023-07-20T11:29:54;99316.75;;;22.80;52.68
50282;BME280;36176;51.506;10.272;2023-07-20T11:32:21;99321.69;;;22.12;55.53
50282;BME280;36176;51.506;10.272;2023-07-20T11:34:49;99327.38;;;21.81;55.63
50282;BME280;36176;51.506;10.272;2023-07-20T11:37:17;99322.56;;;21.75;53.60
50282;BME280;36176;51.506;10.272;2023-07-20T11:39:45;99318.34;;;22.00;50.88
50282;BME280;36176;51.506;10.272;2023-07-20T11:42:14;99319.94;;;21.93;51.71
50282;BME280;36176;51.506;10.272;2023-07-20T11:44:45;99312.09;;;21.72;51.05
50282;BME280;36176;51.506;10.272;2023-07-20T11:47:13;99317.63;;;21.70;52.44
50282;BME280;36176;51.506;10.272;2023-07-20T11:49:41;99310.69;;;22.33;51.50
50282;BME280;36176;51.506;10.272;2023-07-20T11:52:16;99311.72;;;23.21;47.70
50282;BME280;36176;51.506;10.272;2023-07-20T11:54:44;99299.94;;;24.09;50.32
50282;BME280;36176;51.506;10.272;2023-07-20T11:57:19;99312.97;;;24.72;47.57
50282;BME280;36176;51.506;10.272;2023-07-20T11:59:53;99315.88;;;24.95;43.32
50282;BME280;36176;51.506;10.272;2023-07-20T12:02:27;99309.78;;;25.10;42.84
50282;BME280;36176;51.506;10.272;2023-07-20T12:04:55;99311.66;;;25.25;42.35
50282;BME280;36176;51.506;10.272;2023-07-20T12:07:23;99298.75;;;25.44;40.31
50282;BME280;36176;51.506;10.272;2023-07-20T12:10:11;99306.34;;;25.65;41.65
50282;BME280;36176;51.506;10.272;2023-07-20T12:12:44;99301.72;;;25.98;41.20
50282;BME280;36176;51.506;10.272;2023-07-20T12:17:44;99302.66;;;26.14;37.78
50282;BME280;36176;51.506;10.272;2023-07-20T12:20:12;99293.53;;;26.06;38.57
50282;BME280;36176;51.506;10.272;2023-07-20T12:22:41;99286.81;;;26.25;38.18
50282;BME280;36176;51.506;10.272;2023-07-20T12:25:10;99294.13;;;26.48;36.71
50282;BME280;36176;51.506;10.272;2023-07-20T12:27:37;99293.84;;;26.74;35.87
50282;BME280;36176;51.506;10.272;2023-07-20T12:30:08;99285.44;;;26.84;35.59
50282;BME280;36176;51.506;10.272;2023-07-20T12:32:36;99297.47;;;26.66;34.02
50282;BME280;36176;51.506;10.272;2023-07-20T12:35:03;99299.91;;;26.53;35.24
50282;BME280;36176;51.506;10.272;2023-07-20T12:37:30;99290.66;;;26.39;36.86
50282;BME280;36176;51.506;10.272;2023-07-20T12:39:57;99291.75;;;26.22;36.38
50282;BME280;36176;51.506;10.272;2023-07-20T12:42:25;99297.63;;;26.34;34.87
50282;BME280;36176;51.506;10.272;2023-07-20T12:44:52;99286.59;;;26.35;36.69
50282;BME280;36176;51.506;10.272;2023-07-20T12:47:19;99287.50;;;26.59;36.10
50282;BME280;36176;51.506;10.272;2023-07-20T12:49:46;99280.38;;;26.81;36.37
50282;BME280;36176;51.506;10.272;2023-07-20T12:52:14;99287.97;;;27.08;35.22
50282;BME280;36176;51.506;10.272;2023-07-20T12:54:41;99276.16;;;27.16;34.91
50282;BME280;36176;51.506;10.272;2023-07-20T12:57:08;99285.50;;;27.22;34.59
50282;BME280;36176;51.506;10.272;2023-07-20T12:59:38;99273.78;;;27.21;36.27
50282;BME280;36176;51.506;10.272;2023-07-20T13:02:05;99266.66;;;26.74;35.63
50282;BME280;36176;51.506;10.272;2023-07-20T13:04:33;99278.13;;;25.99;36.55